CheckWX is a tool to help pilots better visualize weather data.  It is not intended as a substitute for an official pre-flight weather briefing.

15:04:23 UTC

KFNB METAR
Brenner Field Airport
Falls City, Nebraska, USA
Current

11 mins ago

KFNB 231453Z AUTO 02007KT 10SM CLR 18/08 A3013 RMK AO2 SLP198 T01780083 51017
Observed
May-23 @ 14:53 UTC
Wind
  • 020° at 7 KTS
Visibility
10 SM
Flight Rules
VFR
Cloud Levels
  • Clear skies
Temperature
18°C / 64°F
Dewpoint
C / 46°F
Humidity
52%
Altimeter
30.13" Hg
Pressure
1020.32 hPa
Previous

1 hour ago

KFNB 231353Z AUTO 36003KT 10SM BKN085 15/09 A3012 RMK AO2 SLP197 T01500094
Observed
May-23 @ 13:53 UTC
Wind
  • 360° at 3 KTS
Visibility
10 SM
Flight Rules
VFR
Cloud Levels
  • Broken at 8,500' AGL
Temperature
15°C / 59°F
Dewpoint
C / 48°F
Humidity
68%
Altimeter
30.12" Hg
Pressure
1020.02 hPa
Previous

2 hours ago

KFNB 231253Z AUTO 00000KT 10SM SCT100 13/09 A3010 RMK AO2 SLP190 T01330094
Observed
May-23 @ 12:53 UTC
Visibility
10 SM
Flight Rules
VFR
Cloud Levels
  • Scattered at 10,000' AGL
Temperature
13°C / 55°F
Dewpoint
C / 48°F
Humidity
77%
Altimeter
30.1" Hg
Pressure
1019.32 hPa